sensor_id;sensor_type;location;lat;lon;timestamp;temperature;humidity
19232;DHT22;9750;48.730;10.294;2023-04-03T00:00:39;5.00;94.50
19232;DHT22;9750;48.730;10.294;2023-04-03T00:03:07;5.00;94.60
19232;DHT22;9750;48.730;10.294;2023-04-03T00:05:35;5.00;94.40
19232;DHT22;9750;48.730;10.294;2023-04-03T00:08:03;5.00;94.50
19232;DHT22;9750;48.730;10.294;2023-04-03T00:10:33;5.00;94.30
19232;DHT22;9750;48.730;10.294;2023-04-03T00:13:01;5.00;94.30
19232;DHT22;9750;48.730;10.294;2023-04-03T00:15:28;4.90;94.40
19232;DHT22;9750;48.730;10.294;2023-04-03T00:17:55;5.00;94.40
19232;DHT22;9750;48.730;10.294;2023-04-03T00:20:23;5.00;94.20
19232;DHT22;9750;48.730;10.294;2023-04-03T00:22:51;5.00;94.40
19232;DHT22;9750;48.730;10.294;2023-04-03T00:25:19;5.00;94.10
19232;DHT22;9750;48.730;10.294;2023-04-03T00:27:46;5.00;94.10
19232;DHT22;9750;48.730;10.294;2023-04-03T00:30:15;5.00;94.00
19232;DHT22;9750;48.730;10.294;2023-04-03T00:32:42;4.90;94.10
19232;DHT22;9750;48.730;10.294;2023-04-03T00:35:10;4.90;94.10
19232;DHT22;9750;48.730;10.294;2023-04-03T00:37:41;4.90;93.70
19232;DHT22;9750;48.730;10.294;2023-04-03T00:40:11;4.90;93.60
19232;DHT22;9750;48.730;10.294;2023-04-03T00:42:40;4.90;93.50
19232;DHT22;9750;48.730;10.294;2023-04-03T00:45:31;4.80;93.80
19232;DHT22;9750;48.730;10.294;2023-04-03T00:48:00;4.90;93.60
19232;DHT22;9750;48.730;10.294;2023-04-03T00:50:28;4.80;93.70
19232;DHT22;9750;48.730;10.294;2023-04-03T00:52:56;4.90;94.00
19232;DHT22;9750;48.730;10.294;2023-04-03T00:55:25;4.90;93.90
19232;DHT22;9750;48.730;10.294;2023-04-03T00:57:53;4.90;94.00
19232;DHT22;9750;48.730;10.294;2023-04-03T01:00:22;4.90;93.90
19232;DHT22;9750;48.730;10.294;2023-04-03T01:02:50;4.90;93.80
19232;DHT22;9750;48.730;10.294;2023-04-03T01:05:19;4.90;93.90
19232;DHT22;9750;48.730;10.294;2023-04-03T01:11:10;4.90;94.20
19232;DHT22;9750;48.730;10.294;2023-04-03T01:13:37;4.90;93.90
19232;DHT22;9750;48.730;10.294;2023-04-03T01:16:06;4.80;94.00
19232;DHT22;9750;48.730;10.294;2023-04-03T01:18:35;4.80;94.10
19232;DHT22;9750;48.730;10.294;2023-04-03T01:24:25;4.80;94.40
19232;DHT22;9750;48.730;10.294;2023-04-03T01:26:56;4.90;94.40
19232;DHT22;9750;48.730;10.294;2023-04-03T01:29:23;4.80;94.30
19232;DHT22;9750;48.730;10.294;2023-04-03T01:31:53;4.80;94.30
19232;DHT22;9750;48.730;10.294;2023-04-03T01:34:21;4.70;94.20
19232;DHT22;9750;48.730;10.294;2023-04-03T01:36:49;4.70;94.20
19232;DHT22;9750;48.730;10.294;2023-04-03T01:39:16;4.70;94.10
19232;DHT22;9750;48.730;10.294;2023-04-03T01:41:44;4.70;94.20
19232;DHT22;9750;48.730;10.294;2023-04-03T01:44:11;4.70;93.80
19232;DHT22;9750;48.730;10.294;2023-04-03T01:46:38;4.70;93.50
19232;DHT22;9750;48.730;10.294;2023-04-03T01:49:08;4.60;93.90
19232;DHT22;9750;48.730;10.294;2023-04-03T01:51:36;4.60;93.20
19232;DHT22;9750;48.730;10.294;2023-04-03T01:54:04;4.60;93.10
19232;DHT22;9750;48.730;10.294;2023-04-03T01:56:31;4.70;93.20
19232;DHT22;9750;48.730;10.294;2023-04-03T01:58:58;4.60;93.40
19232;DHT22;9750;48.730;10.294;2023-04-03T02:01:26;4.60;93.70
19232;DHT22;9750;48.730;10.294;2023-04-03T02:03:53;4.70;93.80
19232;DHT22;9750;48.730;10.294;2023-04-03T02:06:21;4.60;93.90
19232;DHT22;9750;48.730;10.294;2023-04-03T02:08:49;4.50;94.00
19232;DHT22;9750;48.730;10.294;2023-04-03T02:11:16;4.60;94.20
19232;DHT22;9750;48.730;10.294;2023-04-03T02:13:43;4.60;94.10
19232;DHT22;9750;48.730;10.294;2023-04-03T02:16:11;4.60;93.90
19232;DHT22;9750;48.730;10.294;2023-04-03T02:18:39;4.60;93.80
19232;DHT22;9750;48.730;10.294;2023-04-03T02:21:06;4.60;93.90
19232;DHT22;9750;48.730;10.294;2023-04-03T02:23:35;4.60;94.00
19232;DHT22;9750;48.730;10.294;2023-04-03T02:26:07;4.60;93.80
19232;DHT22;9750;48.730;10.294;2023-04-03T02:28:35;4.60;94.00
19232;DHT22;9750;48.730;10.294;2023-04-03T02:31:03;4.60;93.90
19232;DHT22;9750;48.730;10.294;2023-04-03T02:33:30;4.60;93.40
19232;DHT22;9750;48.730;10.294;2023-04-03T02:35:58;4.60;93.40
19232;DHT22;9750;48.730;10.294;2023-04-03T02:41:49;4.70;93.00
19232;DHT22;9750;48.730;10.294;2023-04-03T02:44:16;4.80;93.30
19232;DHT22;9750;48.730;10.294;2023-04-03T02:46:44;4.80;93.10
19232;DHT22;9750;48.730;10.294;2023-04-03T02:49:11;4.80;93.20
19232;DHT22;9750;48.730;10.294;2023-04-03T02:51:38;4.90;93.00
19232;DHT22;9750;48.730;10.294;2023-04-03T02:54:06;4.90;93.10
19232;DHT22;9750;48.730;10.294;2023-04-03T02:56:35;4.90;93.00
19232;DHT22;9750;48.730;10.294;2023-04-03T02:59:04;4.90;93.00
19232;DHT22;9750;48.730;10.294;2023-04-03T03:01:31;4.90;92.50
19232;DHT22;9750;48.730;10.294;2023-04-03T03:03:59;4.90;92.00
19232;DHT22;9750;48.730;10.294;2023-04-03T03:06:27;4.80;91.70
19232;DHT22;9750;48.730;10.294;2023-04-03T03:08:54;4.80;91.70
19232;DHT22;9750;48.730;10.294;2023-04-03T03:11:21;4.80;91.50
19232;DHT22;9750;48.730;10.294;2023-04-03T03:13:48;4.70;91.80
19232;DHT22;9750;48.730;10.294;2023-04-03T03:16:17;4.60;92.10
19232;DHT22;9750;48.730;10.294;2023-04-03T03:18:45;4.60;92.20
19232;DHT22;9750;48.730;10.294;2023-04-03T03:21:12;4.60;92.40
19232;DHT22;9750;48.730;10.294;2023-04-03T03:23:39;4.50;92.10
19232;DHT22;9750;48.730;10.294;2023-04-03T03:26:08;4.50;92.10
19232;DHT22;9750;48.730;10.294;2023-04-03T03:28:38;4.50;92.20
19232;DHT22;9750;48.730;10.294;2023-04-03T03:31:06;4.50;92.30
19232;DHT22;9750;48.730;10.294;2023-04-03T03:33:35;4.50;92.20
19232;DHT22;9750;48.730;10.294;2023-04-03T03:36:03;4.50;92.10
19232;DHT22;9750;48.730;10.294;2023-04-03T03:38:30;4.50;92.20
19232;DHT22;9750;48.730;10.294;2023-04-03T03:40:57;4.60;92.30
19232;DHT22;9750;48.730;10.294;2023-04-03T03:43:24;4.60;92.10
19232;DHT22;9750;48.730;10.294;2023-04-03T03:45:52;4.60;92.30
19232;DHT22;9750;48.730;10.294;2023-04-03T03:48:19;4.50;92.40
19232;DHT22;9750;48.730;10.294;2023-04-03T03:50:49;4.50;92.20
19232;DHT22;9750;48.730;10.294;2023-04-03T03:53:16;4.50;92.30
19232;DHT22;9750;48.730;10.294;2023-04-03T03:55:43;4.50;92.20
19232;DHT22;9750;48.730;10.294;2023-04-03T03:58:10;4.50;92.10
19232;DHT22;9750;48.730;10.294;2023-04-03T04:00:38;4.40;92.20
19232;DHT22;9750;48.730;10.294;2023-04-03T04:03:05;4.50;92.40
19232;DHT22;9750;48.730;10.294;2023-04-03T04:05:32;4.50;92.60
19232;DHT22;9750;48.730;10.294;2023-04-03T04:11:23;4.40;92.20
19232;DHT22;9750;48.730;10.294;2023-04-03T04:13:50;4.30;92.10
19232;DHT22;9750;48.730;10.294;2023-04-03T04:16:17;4.30;92.30
19232;DHT22;9750;48.730;10.294;2023-04-03T04:18:44;4.30;92.60
19232;DHT22;9750;48.730;10.294;2023-04-03T04:21:12;4.20;92.60
19232;DHT22;9750;48.730;10.294;2023-04-03T04:23:39;4.20;92.50
19232;DHT22;9750;48.730;10.294;2023-04-03T04:26:06;4.20;92.60
19232;DHT22;9750;48.730;10.294;2023-04-03T04:28:35;4.20;92.70
19232;DHT22;9750;48.730;10.294;2023-04-03T04:31:02;4.20;92.70
19232;DHT22;9750;48.730;10.294;2023-04-03T04:33:29;4.30;92.80
19232;DHT22;9750;48.730;10.294;2023-04-03T04:35:57;4.20;92.60
19232;DHT22;9750;48.730;10.294;2023-04-03T04:38:24;4.20;92.80
19232;DHT22;9750;48.730;10.294;2023-04-03T04:40:51;4.10;92.90
19232;DHT22;9750;48.730;10.294;2023-04-03T04:43:18;4.10;93.10
19232;DHT22;9750;48.730;10.294;2023-04-03T04:45:47;4.00;92.90
19232;DHT22;9750;48.730;10.294;2023-04-03T04:48:14;4.00;93.10
19232;DHT22;9750;48.730;10.294;2023-04-03T04:50:42;3.90;93.10
19232;DHT22;9750;48.730;10.294;2023-04-03T04:53:09;3.90;93.20
19232;DHT22;9750;48.730;10.294;2023-04-03T04:55:36;4.00;93.50
19232;DHT22;9750;48.730;10.294;2023-04-03T04:58:03;4.00;93.30
19232;DHT22;9750;48.730;10.294;2023-04-03T05:00:31;4.00;93.20
19232;DHT22;9750;48.730;10.294;2023-04-03T05:02:59;4.00;93.30
19232;DHT22;9750;48.730;10.294;2023-04-03T05:05:27;4.00;93.30
19232;DHT22;9750;48.730;10.294;2023-04-03T05:07:54;4.00;93.40
19232;DHT22;9750;48.730;10.294;2023-04-03T05:10:22;4.00;93.30
19232;DHT22;9750;48.730;10.294;2023-04-03T05:12:49;4.00;93.30
19232;DHT22;9750;48.730;10.294;2023-04-03T05:15:16;4.00;93.30
19232;DHT22;9750;48.730;10.294;2023-04-03T05:17:43;4.00;93.20
19232;DHT22;9750;48.730;10.294;2023-04-03T05:20:12;3.90;93.20
19232;DHT22;9750;48.730;10.294;2023-04-03T05:22:40;3.90;93.40
19232;DHT22;9750;48.730;10.294;2023-04-03T05:25:08;4.00;93.40
19232;DHT22;9750;48.730;10.294;2023-04-03T05:27:35;4.10;93.40
19232;DHT22;9750;48.730;10.294;2023-04-03T05:30:03;4.00;93.40
19232;DHT22;9750;48.730;10.294;2023-04-03T05:32:30;4.10;93.50
19232;DHT22;9750;48.730;10.294;2023-04-03T05:34:58;4.10;93.20
19232;DHT22;9750;48.730;10.294;2023-04-03T05:37:27;4.10;93.40
19232;DHT22;9750;48.730;10.294;2023-04-03T05:39:54;4.10;93.30
19232;DHT22;9750;48.730;10.294;2023-04-03T05:42:21;4.10;93.30
19232;DHT22;9750;48.730;10.294;2023-04-03T05:44:48;4.20;93.20
19232;DHT22;9750;48.730;10.294;2023-04-03T05:47:16;4.10;93.20
19232;DHT22;9750;48.730;10.294;2023-04-03T05:49:43;4.10;93.10
19232;DHT22;9750;48.730;10.294;2023-04-03T05:52:19;4.10;93.30
19232;DHT22;9750;48.730;10.294;2023-04-03T05:54:49;4.10;93.40
19232;DHT22;9750;48.730;10.294;2023-04-03T05:57:16;4.20;93.50
19232;DHT22;9750;48.730;10.294;2023-04-03T05:59:43;4.30;93.30
19232;DHT22;9750;48.730;10.294;2023-04-03T06:02:14;4.40;93.20
19232;DHT22;9750;48.730;10.294;2023-04-03T06:04:41;4.20;93.00
19232;DHT22;9750;48.730;10.294;2023-04-03T06:07:11;4.20;93.00
19232;DHT22;9750;48.730;10.294;2023-04-03T06:09:41;4.20;93.00
19232;DHT22;9750;48.730;10.294;2023-04-03T06:12:10;4.30;93.00
19232;DHT22;9750;48.730;10.294;2023-04-03T06:14:37;4.30;93.10
19232;DHT22;9750;48.730;10.294;2023-04-03T06:17:05;4.30;93.00
19232;DHT22;9750;48.730;10.294;2023-04-03T06:19:32;4.40;93.20
19232;DHT22;9750;48.730;10.294;2023-04-03T06:21:59;4.40;92.90
19232;DHT22;9750;48.730;10.294;2023-04-03T06:24:27;4.40;92.70
19232;DHT22;9750;48.730;10.294;2023-04-03T06:26:54;4.40;93.00
19232;DHT22;9750;48.730;10.294;2023-04-03T06:29:23;4.40;93.10
19232;DHT22;9750;48.730;10.294;2023-04-03T06:31:51;4.40;93.00
19232;DHT22;9750;48.730;10.294;2023-04-03T06:34:18;4.50;93.30
19232;DHT22;9750;48.730;10.294;2023-04-03T06:36:46;4.60;93.10
19232;DHT22;9750;48.730;10.294;2023-04-03T06:39:16;4.60;93.00
19232;DHT22;9750;48.730;10.294;2023-04-03T06:41:44;4.60;92.80
19232;DHT22;9750;48.730;10.294;2023-04-03T06:44:11;4.60;93.00
19232;DHT22;9750;48.730;10.294;2023-04-03T06:46:43;4.60;92.80
19232;DHT22;9750;48.730;10.294;2023-04-03T06:49:12;4.50;92.90
19232;DHT22;9750;48.730;10.294;2023-04-03T06:51:39;4.60;93.00
19232;DHT22;9750;48.730;10.294;2023-04-03T06:54:07;4.70;92.90
19232;DHT22;9750;48.730;10.294;2023-04-03T06:56:35;4.80;92.90
19232;DHT22;9750;48.730;10.294;2023-04-03T06:59:02;4.70;92.70
19232;DHT22;9750;48.730;10.294;2023-04-03T07:01:30;4.80;92.90
19232;DHT22;9750;48.730;10.294;2023-04-03T07:03:59;4.80;92.60
19232;DHT22;9750;48.730;10.294;2023-04-03T07:06:26;4.80;92.80
19232;DHT22;9750;48.730;10.294;2023-04-03T07:08:56;4.90;92.70
19232;DHT22;9750;48.730;10.294;2023-04-03T07:11:24;4.90;92.60
19232;DHT22;9750;48.730;10.294;2023-04-03T07:13:52;5.00;92.60
19232;DHT22;9750;48.730;10.294;2023-04-03T07:16:20;5.10;92.50
19232;DHT22;9750;48.730;10.294;2023-04-03T07:18:48;5.10;92.60
19232;DHT22;9750;48.730;10.294;2023-04-03T07:21:16;5.20;92.50
19232;DHT22;9750;48.730;10.294;2023-04-03T07:23:44;5.20;92.50
19232;DHT22;9750;48.730;10.294;2023-04-03T07:26:11;5.30;92.60
19232;DHT22;9750;48.730;10.294;2023-04-03T07:28:38;5.30;92.60
19232;DHT22;9750;48.730;10.294;2023-04-03T07:31:10;5.30;92.60
19232;DHT22;9750;48.730;10.294;2023-04-03T07:33:40;5.20;92.70
19232;DHT22;9750;48.730;10.294;2023-04-03T07:36:08;5.20;92.80
19232;DHT22;9750;48.730;10.294;2023-04-03T07:38:37;5.30;92.60
19232;DHT22;9750;48.730;10.294;2023-04-03T07:41:04;5.30;92.70
19232;DHT22;9750;48.730;10.294;2023-04-03T07:43:32;5.40;92.90
19232;DHT22;9750;48.730;10.294;2023-04-03T07:46:00;5.30;92.60
19232;DHT22;9750;48.730;10.294;2023-04-03T07:48:27;5.30;92.80
19232;DHT22;9750;48.730;10.294;2023-04-03T07:50:58;5.40;92.90
19232;DHT22;9750;48.730;10.294;2023-04-03T07:53:25;5.40;93.30
19232;DHT22;9750;48.730;10.294;2023-04-03T07:55:56;5.50;92.60
19232;DHT22;9750;48.730;10.294;2023-04-03T07:58:23;5.50;92.70
19232;DHT22;9750;48.730;10.294;2023-04-03T08:00:51;5.50;92.90
19232;DHT22;9750;48.730;10.294;2023-04-03T08:03:19;5.60;92.90
19232;DHT22;9750;48.730;10.294;2023-04-03T08:05:48;5.60;92.80
19232;DHT22;9750;48.730;10.294;2023-04-03T08:08:17;5.70;92.50
19232;DHT22;9750;48.730;10.294;2023-04-03T08:10:48;5.80;92.30
19232;DHT22;9750;48.730;10.294;2023-04-03T08:13:17;5.80;92.40
19232;DHT22;9750;48.730;10.294;2023-04-03T08:15:44;5.90;92.20
19232;DHT22;9750;48.730;10.294;2023-04-03T08:18:13;5.90;92.30
19232;DHT22;9750;48.730;10.294;2023-04-03T08:20:40;6.00;91.90
19232;DHT22;9750;48.730;10.294;2023-04-03T08:23:08;6.00;91.70
19232;DHT22;9750;48.730;10.294;2023-04-03T08:25:37;6.20;92.00
19232;DHT22;9750;48.730;10.294;2023-04-03T08:28:05;6.20;91.90
19232;DHT22;9750;48.730;10.294;2023-04-03T08:30:34;6.30;91.60
19232;DHT22;9750;48.730;10.294;2023-04-03T08:33:01;6.40;91.30
19232;DHT22;9750;48.730;10.294;2023-04-03T08:35:29;6.40;91.60
19232;DHT22;9750;48.730;10.294;2023-04-03T08:37:56;6.40;91.20
19232;DHT22;9750;48.730;10.294;2023-04-03T08:40:23;6.20;91.30
19232;DHT22;9750;48.730;10.294;2023-04-03T08:43:03;6.20;91.50
19232;DHT22;9750;48.730;10.294;2023-04-03T08:45:42;6.30;91.70
19232;DHT22;9750;48.730;10.294;2023-04-03T08:48:15;6.30;90.90
19232;DHT22;9750;48.730;10.294;2023-04-03T08:50:45;6.20;91.70
19232;DHT22;9750;48.730;10.294;2023-04-03T08:53:16;6.30;91.30
19232;DHT22;9750;48.730;10.294;2023-04-03T08:55:46;6.30;91.40
19232;DHT22;9750;48.730;10.294;2023-04-03T08:58:16;6.30;91.30
19232;DHT22;9750;48.730;10.294;2023-04-03T09:00:49;6.40;91.50
19232;DHT22;9750;48.730;10.294;2023-04-03T09:03:18;6.40;91.20
19232;DHT22;9750;48.730;10.294;2023-04-03T09:05:48;6.50;90.90
19232;DHT22;9750;48.730;10.294;2023-04-03T09:08:23;6.50;90.80
19232;DHT22;9750;48.730;10.294;2023-04-03T09:10:59;6.60;90.80
19232;DHT22;9750;48.730;10.294;2023-04-03T09:13:35;6.70;91.30
19232;DHT22;9750;48.730;10.294;2023-04-03T09:16:20;6.80;90.30
19232;DHT22;9750;48.730;10.294;2023-04-03T09:18:54;6.80;90.10
19232;DHT22;9750;48.730;10.294;2023-04-03T09:21:31;6.80;90.40
19232;DHT22;9750;48.730;10.294;2023-04-03T09:24:03;6.80;90.00
19232;DHT22;9750;48.730;10.294;2023-04-03T09:26:36;6.80;89.70
19232;DHT22;9750;48.730;10.294;2023-04-03T09:29:07;6.90;89.80
19232;DHT22;9750;48.730;10.294;2023-04-03T09:31:39;7.10;88.70
19232;DHT22;9750;48.730;10.294;2023-04-03T09:34:15;7.20;89.00
19232;DHT22;9750;48.730;10.294;2023-04-03T09:36:48;7.10;88.00
19232;DHT22;9750;48.730;10.294;2023-04-03T09:39:18;7.10;89.00
19232;DHT22;9750;48.730;10.294;2023-04-03T09:41:57;7.10;88.20
19232;DHT22;9750;48.730;10.294;2023-04-03T09:44:27;7.10;87.20
19232;DHT22;9750;48.730;10.294;2023-04-03T09:46:56;7.00;86.20
19232;DHT22;9750;48.730;10.294;2023-04-03T09:49:23;7.00;86.70
19232;DHT22;9750;48.730;10.294;2023-04-03T09:51:51;7.10;86.50
19232;DHT22;9750;48.730;10.294;2023-04-03T09:54:31;7.10;87.90
19232;DHT22;9750;48.730;10.294;2023-04-03T09:57:04;7.20;86.60
19232;DHT22;9750;48.730;10.294;2023-04-03T09:59:33;7.10;88.50
19232;DHT22;9750;48.730;10.294;2023-04-03T10:02:03;7.20;88.00
19232;DHT22;9750;48.730;10.294;2023-04-03T10:04:41;7.20;88.10
19232;DHT22;9750;48.730;10.294;2023-04-03T10:07:29;7.10;87.50
19232;DHT22;9750;48.730;10.294;2023-04-03T10:09:58;7.00;86.80
19232;DHT22;9750;48.730;10.294;2023-04-03T10:12:25;7.00;87.40
19232;DHT22;9750;48.730;10.294;2023-04-03T10:14:57;7.00;87.30
19232;DHT22;9750;48.730;10.294;2023-04-03T10:17:34;7.10;88.00
19232;DHT22;9750;48.730;10.294;2023-04-03T10:20:13;7.20;86.50
19232;DHT22;9750;48.730;10.294;2023-04-03T10:22:59;7.20;86.70
19232;DHT22;9750;48.730;10.294;2023-04-03T10:25:30;7.30;86.50
19232;DHT22;9750;48.730;10.294;2023-04-03T10:28:17;7.30;86.90
19232;DHT22;9750;48.730;10.294;2023-04-03T10:30:51;7.00;88.00
19232;DHT22;9750;48.730;10.294;2023-04-03T10:33:33;7.00;87.60
19232;DHT22;9750;48.730;10.294;2023-04-03T10:36:10;7.00;86.30
19232;DHT22;9750;48.730;10.294;2023-04-03T10:38:43;6.90;86.00
19232;DHT22;9750;48.730;10.294;2023-04-03T10:41:16;7.00;85.30
19232;DHT22;9750;48.730;10.294;2023-04-03T10:43:52;6.90;85.60
19232;DHT22;9750;48.730;10.294;2023-04-03T10:46:25;6.90;85.50
19232;DHT22;9750;48.730;10.294;2023-04-03T10:49:10;6.90;84.90
19232;DHT22;9750;48.730;10.294;2023-04-03T10:51:42;6.80;84.30
19232;DHT22;9750;48.730;10.294;2023-04-03T10:54:13;6.70;85.00
19232;DHT22;9750;48.730;10.294;2023-04-03T10:56:48;6.80;84.20
19232;DHT22;9750;48.730;10.294;2023-04-03T10:59:25;6.80;84.60
19232;DHT22;9750;48.730;10.294;2023-04-03T11:01:56;6.90;84.70
19232;DHT22;9750;48.730;10.294;2023-04-03T11:04:27;6.90;85.00
19232;DHT22;9750;48.730;10.294;2023-04-03T11:06:58;6.90;84.20
19232;DHT22;9750;48.730;10.294;2023-04-03T11:09:29;6.80;84.70
19232;DHT22;9750;48.730;10.294;2023-04-03T11:12:03;6.80;83.60
19232;DHT22;9750;48.730;10.294;2023-04-03T11:14:32;6.80;84.70
19232;DHT22;9750;48.730;10.294;2023-04-03T11:17:20;6.90;83.60
19232;DHT22;9750;48.730;10.294;2023-04-03T11:20:00;6.80;83.60
19232;DHT22;9750;48.730;10.294;2023-04-03T11:22:30;6.90;83.80
19232;DHT22;9750;48.730;10.294;2023-04-03T11:25:04;7.00;83.30
19232;DHT22;9750;48.730;10.294;2023-04-03T11:27:37;7.00;83.70
19232;DHT22;9750;48.730;10.294;2023-04-03T11:30:09;6.90;83.70
19232;DHT22;9750;48.730;10.294;2023-04-03T11:32:54;6.90;83.60
19232;DHT22;9750;48.730;10.294;2023-04-03T11:35:25;6.90;85.40
19232;DHT22;9750;48.730;10.294;2023-04-03T11:37:53;7.00;83.50
19232;DHT22;9750;48.730;10.294;2023-04-03T11:40:25;7.00;81.50
19232;DHT22;9750;48.730;10.294;2023-04-03T11:43:04;7.10;81.40
19232;DHT22;9750;48.730;10.294;2023-04-03T11:45:38;7.20;81.40
19232;DHT22;9750;48.730;10.294;2023-04-03T11:48:06;7.20;82.80
19232;DHT22;9750;48.730;10.294;2023-04-03T11:50:55;7.20;82.40
19232;DHT22;9750;48.730;10.294;2023-04-03T11:53:35;7.30;82.20
19232;DHT22;9750;48.730;10.294;2023-04-03T11:56:26;7.30;81.90
19232;DHT22;9750;48.730;10.294;2023-04-03T11:59:21;7.30;82.10
19232;DHT22;9750;48.730;10.294;2023-04-03T12:01:50;7.20;83.00
19232;DHT22;9750;48.730;10.294;2023-04-03T12:04:19;7.20;84.60
19232;DHT22;9750;48.730;10.294;2023-04-03T12:07:08;7.20;83.50
19232;DHT22;9750;48.730;10.294;2023-04-03T12:09:57;7.30;82.30
19232;DHT22;9750;48.730;10.294;2023-04-03T12:12:35;7.30;82.30
19232;DHT22;9750;48.730;10.294;2023-04-03T12:15:19;7.40;82.60
19232;DHT22;9750;48.730;10.294;2023-04-03T12:17:47;7.40;80.60
19232;DHT22;9750;48.730;10.294;2023-04-03T12:23:34;7.50;81.40
19232;DHT22;9750;48.730;10.294;2023-04-03T12:26:05;7.60;80.20
19232;DHT22;9750;48.730;10.294;2023-04-03T12:28:39;7.70;80.00
19232;DHT22;9750;48.730;10.294;2023-04-03T12:31:09;7.80;79.90
19232;DHT22;9750;48.730;10.294;2023-04-03T12:33:49;8.00;79.00
19232;DHT22;9750;48.730;10.294;2023-04-03T12:36:28;8.10;77.80
19232;DHT22;9750;48.730;10.294;2023-04-03T12:39:17;8.20;77.80
19232;DHT22;9750;48.730;10.294;2023-04-03T12:41:56;8.30;77.00
19232;DHT22;9750;48.730;10.294;2023-04-03T12:44:37;8.30;77.00
19232;DHT22;9750;48.730;10.294;2023-04-03T12:47:19;8.40;77.40
19232;DHT22;9750;48.730;10.294;2023-04-03T12:49:49;8.40;76.30
19232;DHT22;9750;48.730;10.294;2023-04-03T12:52:24;8.20;75.00
19232;DHT22;9750;48.730;10.294;2023-04-03T12:54:57;8.20;75.60
19232;DHT22;9750;48.730;10.294;2023-04-03T12:57:26;8.10;74.20
19232;DHT22;9750;48.730;10.294;2023-04-03T12:59:54;8.00;75.40
19232;DHT22;9750;48.730;10.294;2023-04-03T13:02:24;7.80;75.90
19232;DHT22;9750;48.730;10.294;2023-04-03T13:04:52;7.70;75.10
19232;DHT22;9750;48.730;10.294;2023-04-03T13:07:22;7.70;75.90
19232;DHT22;9750;48.730;10.294;2023-04-03T13:10:04;7.80;76.00
19232;DHT22;9750;48.730;10.294;2023-04-03T13:12:46;7.80;74.80
19232;DHT22;9750;48.730;10.294;2023-04-03T13:15:16;7.90;74.80
19232;DHT22;9750;48.730;10.294;2023-04-03T13:17:45;7.90;73.90
19232;DHT22;9750;48.730;10.294;2023-04-03T13:20:18;7.80;73.00
19232;DHT22;9750;48.730;10.294;2023-04-03T13:22:51;7.90;74.50
19232;DHT22;9750;48.730;10.294;2023-04-03T13:25:21;8.10;76.00
19232;DHT22;9750;48.730;10.294;2023-04-03T13:27:49;8.20;74.80
19232;DHT22;9750;48.730;10.294;2023-04-03T13:30:29;7.90;75.60
19232;DHT22;9750;48.730;10.294;2023-04-03T13:32:58;7.70;76.20
19232;DHT22;9750;48.730;10.294;2023-04-03T13:35:29;7.70;77.60
19232;DHT22;9750;48.730;10.294;2023-04-03T13:37:58;7.70;77.50
19232;DHT22;9750;48.730;10.294;2023-04-03T13:40:27;7.60;77.50
19232;DHT22;9750;48.730;10.294;2023-04-03T13:43:06;7.60;77.20
19232;DHT22;9750;48.730;10.294;2023-04-03T13:45:34;7.60;77.50
19232;DHT22;9750;48.730;10.294;2023-04-03T13:48:14;7.70;76.20
19232;DHT22;9750;48.730;10.294;2023-04-03T13:50:58;7.70;76.00
19232;DHT22;9750;48.730;10.294;2023-04-03T13:53:29;7.90;75.00
19232;DHT22;9750;48.730;10.294;2023-04-03T13:56:05;7.90;73.90
19232;DHT22;9750;48.730;10.294;2023-04-03T13:58:34;8.00;72.70
19232;DHT22;9750;48.730;10.294;2023-04-03T14:01:10;8.00;72.30
19232;DHT22;9750;48.730;10.294;2023-04-03T14:03:42;8.10;74.80
19232;DHT22;9750;48.730;10.294;2023-04-03T14:06:11;8.20;73.10
19232;DHT22;9750;48.730;10.294;2023-04-03T14:08:39;8.30;73.50
19232;DHT22;9750;48.730;10.294;2023-04-03T14:11:12;8.40;71.60
19232;DHT22;9750;48.730;10.294;2023-04-03T14:13:41;8.40;72.40
19232;DHT22;9750;48.730;10.294;2023-04-03T14:16:11;8.40;72.30
19232;DHT22;9750;48.730;10.294;2023-04-03T14:18:39;8.50;73.00
19232;DHT22;9750;48.730;10.294;2023-04-03T14:21:06;8.50;72.50
19232;DHT22;9750;48.730;10.294;2023-04-03T14:23:33;8.30;70.50
19232;DHT22;9750;48.730;10.294;2023-04-03T14:26:01;8.10;71.50
19232;DHT22;9750;48.730;10.294;2023-04-03T14:28:37;7.90;73.50
19232;DHT22;9750;48.730;10.294;2023-04-03T14:31:14;7.90;74.10
19232;DHT22;9750;48.730;10.294;2023-04-03T14:33:43;7.90;74.50
19232;DHT22;9750;48.730;10.294;2023-04-03T14:36:13;7.90;72.50
19232;DHT22;9750;48.730;10.294;2023-04-03T14:38:48;7.80;72.00
19232;DHT22;9750;48.730;10.294;2023-04-03T14:47:02;7.80;71.10
19232;DHT22;9750;48.730;10.294;2023-04-03T14:49:32;7.80;71.80
19232;DHT22;9750;48.730;10.294;2023-04-03T14:52:00;7.70;71.50
19232;DHT22;9750;48.730;10.294;2023-04-03T14:54:27;7.60;72.20
19232;DHT22;9750;48.730;10.294;2023-04-03T14:56:55;7.80;72.90
19232;DHT22;9750;48.730;10.294;2023-04-03T14:59:33;7.90;73.30
19232;DHT22;9750;48.730;10.294;2023-04-03T15:02:27;7.90;70.40
19232;DHT22;9750;48.730;10.294;2023-04-03T15:04:59;8.00;70.50
19232;DHT22;9750;48.730;10.294;2023-04-03T15:07:34;8.20;70.50
19232;DHT22;9750;48.730;10.294;2023-04-03T15:10:09;8.30;70.20
19232;DHT22;9750;48.730;10.294;2023-04-03T15:12:41;8.30;70.10
19232;DHT22;9750;48.730;10.294;2023-04-03T15:15:10;8.20;71.70
19232;DHT22;9750;48.730;10.294;2023-04-03T15:17:38;8.20;70.90
19232;DHT22;9750;48.730;10.294;2023-04-03T15:20:12;8.10;71.20
19232;DHT22;9750;48.730;10.294;2023-04-03T15:22:39;8.00;72.80
19232;DHT22;9750;48.730;10.294;2023-04-03T15:25:08;8.00;71.70
19232;DHT22;9750;48.730;10.294;2023-04-03T15:27:35;7.80;71.30
19232;DHT22;9750;48.730;10.294;2023-04-03T15:30:04;7.70;72.10
19232;DHT22;9750;48.730;10.294;2023-04-03T15:32:34;7.80;73.30
19232;DHT22;9750;48.730;10.294;2023-04-03T15:35:02;7.80;71.50
19232;DHT22;9750;48.730;10.294;2023-04-03T15:37:29;7.80;71.50
19232;DHT22;9750;48.730;10.294;2023-04-03T15:39:56;7.80;71.50
19232;DHT22;9750;48.730;10.294;2023-04-03T15:42:24;7.70;72.50
19232;DHT22;9750;48.730;10.294;2023-04-03T15:44:51;7.80;71.40
19232;DHT22;9750;48.730;10.294;2023-04-03T15:47:18;7.70;69.80
19232;DHT22;9750;48.730;10.294;2023-04-03T15:49:47;7.70;69.30
19232;DHT22;9750;48.730;10.294;2023-04-03T15:52:14;7.70;70.40
19232;DHT22;9750;48.730;10.294;2023-04-03T15:54:42;7.70;69.30
19232;DHT22;9750;48.730;10.294;2023-04-03T15:57:09;7.80;70.10
19232;DHT22;9750;48.730;10.294;2023-04-03T15:59:36;7.90;69.40
19232;DHT22;9750;48.730;10.294;2023-04-03T16:02:05;8.10;69.50
19232;DHT22;9750;48.730;10.294;2023-04-03T16:04:34;8.20;68.90
19232;DHT22;9750;48.730;10.294;2023-04-03T16:07:03;8.20;69.00
19232;DHT22;9750;48.730;10.294;2023-04-03T16:09:32;8.20;67.90
19232;DHT22;9750;48.730;10.294;2023-04-03T16:12:00;8.10;69.40
19232;DHT22;9750;48.730;10.294;2023-04-03T16:14:27;7.90;68.80
19232;DHT22;9750;48.730;10.294;2023-04-03T16:16:56;7.90;70.20
19232;DHT22;9750;48.730;10.294;2023-04-03T16:19:23;7.80;68.70
19232;DHT22;9750;48.730;10.294;2023-04-03T16:21:52;7.80;67.90
19232;DHT22;9750;48.730;10.294;2023-04-03T16:24:21;7.80;70.10
19232;DHT22;9750;48.730;10.294;2023-04-03T16:26:54;7.90;70.50